createdAt,value
2017-08-29T00:00:50.679Z,84.80
2017-08-29T00:03:20.714Z,84.70
2017-08-29T00:05:50.188Z,84.70
2017-08-29T00:08:20.058Z,84.60
2017-08-29T00:10:50.189Z,84.80
2017-08-29T00:13:19.584Z,84.80
2017-08-29T00:15:48.831Z,84.90
2017-08-29T00:18:18.119Z,84.90
2017-08-29T00:20:47.542Z,85.20
2017-08-29T00:23:16.860Z,85.30
2017-08-29T00:25:46.187Z,85.30
2017-08-29T00:28:15.417Z,85.40
2017-08-29T00:30:44.691Z,85.60
2017-08-29T00:33:13.933Z,85.80
2017-08-29T00:35:43.187Z,85.90
2017-08-29T00:38:12.479Z,86.10
2017-08-29T00:40:41.742Z,85.90
2017-08-29T00:43:11.023Z,86.00
2017-08-29T00:45:40.477Z,85.90
2017-08-29T00:48:09.726Z,85.80
2017-08-29T00:50:38.972Z,85.80
2017-08-29T00:53:08.452Z,85.60
2017-08-29T00:55:38.225Z,85.80
2017-08-29T00:58:07.481Z,86.00
2017-08-29T01:00:36.746Z,85.90
2017-08-29T01:03:06.054Z,86.30
2017-08-29T01:05:35.317Z,86.30
2017-08-29T01:08:04.615Z,86.60
2017-08-29T01:10:33.889Z,86.40
2017-08-29T01:13:03.146Z,87.10
2017-08-29T01:15:32.582Z,86.80
2017-08-29T01:18:01.906Z,86.90
2017-08-29T01:20:31.185Z,87.10
2017-08-29T01:23:00.478Z,87.00
2017-08-29T01:25:29.808Z,86.70
2017-08-29T01:27:59.073Z,87.40
2017-08-29T01:30:28.334Z,86.90
2017-08-29T01:32:57.589Z,86.80
2017-08-29T01:35:27.026Z,86.80
2017-08-29T01:37:56.305Z,87.10
2017-08-29T01:40:25.600Z,86.90
2017-08-29T01:42:55.499Z,87.30
2017-08-29T01:45:25.727Z,87.30
2017-08-29T01:47:55.147Z,87.70
2017-08-29T01:50:24.456Z,87.70
2017-08-29T01:52:53.868Z,87.90
2017-08-29T01:55:23.135Z,87.90
2017-08-29T01:57:52.517Z,88.00
2017-08-29T02:00:22.549Z,88.10
2017-08-29T02:02:51.978Z,88.20
2017-08-29T02:05:21.386Z,88.20
2017-08-29T02:07:50.675Z,88.60
2017-08-29T02:10:19.965Z,88.40
2017-08-29T02:12:49.222Z,88.60
2017-08-29T02:15:18.485Z,88.70
2017-08-29T02:17:47.818Z,88.30
2017-08-29T02:20:17.304Z,88.70
2017-08-29T02:22:46.583Z,88.80
2017-08-29T02:25:15.838Z,88.80
2017-08-29T02:27:45.222Z,88.70
2017-08-29T02:30:14.470Z,89.10
2017-08-29T02:32:43.840Z,89.30
2017-08-29T02:35:13.085Z,89.10
2017-08-29T02:37:42.343Z,89.10
2017-08-29T02:40:11.693Z,89.00
2017-08-29T02:42:40.942Z,89.10
2017-08-29T02:45:10.309Z,89.40
2017-08-29T02:47:39.843Z,89.30
2017-08-29T02:50:09.106Z,89.80
2017-08-29T02:52:38.375Z,89.70
2017-08-29T02:55:07.741Z,90.00
2017-08-29T02:57:37.218Z,90.00
2017-08-29T03:00:06.461Z,89.70
2017-08-29T03:02:35.830Z,89.70
2017-08-29T03:05:05.078Z,89.90
2017-08-29T03:07:34.444Z,90.10
2017-08-29T03:10:03.735Z,90.10
2017-08-29T03:12:33.003Z,90.00
2017-08-29T03:15:02.333Z,90.10
2017-08-29T03:17:31.589Z,90.10
2017-08-29T03:20:00.918Z,90.10
2017-08-29T03:22:30.266Z,90.10
2017-08-29T03:24:59.513Z,90.20
2017-08-29T03:27:29.153Z,90.20
2017-08-29T03:29:58.563Z,90.20
2017-08-29T03:32:27.814Z,90.10
2017-08-29T03:34:57.183Z,90.20
2017-08-29T03:37:26.425Z,90.20
2017-08-29T03:39:55.790Z,89.60
2017-08-29T03:42:25.057Z,89.90
2017-08-29T03:44:54.305Z,89.70
2017-08-29T03:47:23.558Z,89.00
2017-08-29T03:49:52.926Z,90.00
2017-08-29T03:52:22.171Z,89.40
2017-08-29T03:54:51.434Z,89.60
2017-08-29T03:57:20.703Z,89.80
2017-08-29T03:59:50.010Z,90.10
2017-08-29T04:02:19.262Z,90.00
2017-08-29T04:04:48.538Z,90.30
2017-08-29T04:07:17.810Z,90.20
2017-08-29T04:09:47.449Z,90.10
2017-08-29T04:12:16.888Z,90.10
2017-08-29T04:14:46.133Z,90.20
2017-08-29T04:17:15.494Z,90.30
2017-08-29T04:19:44.795Z,90.20
2017-08-29T04:22:14.065Z,90.20
2017-08-29T04:24:43.402Z,90.30
2017-08-29T04:27:12.651Z,90.20
2017-08-29T04:29:41.944Z,90.30
2017-08-29T04:32:11.161Z,90.30
2017-08-29T04:34:40.436Z,90.30
2017-08-29T04:37:09.698Z,90.20
2017-08-29T04:39:38.974Z,90.20
2017-08-29T04:42:08.221Z,90.30
2017-08-29T04:44:37.469Z,90.40
2017-08-29T04:47:07.593Z,90.50
2017-08-29T04:49:36.842Z,90.40
2017-08-29T04:52:06.106Z,90.30
2017-08-29T04:54:35.350Z,90.20
2017-08-29T04:57:04.610Z,90.20
2017-08-29T04:59:33.881Z,90.20
2017-08-29T05:02:03.129Z,90.10
2017-08-29T05:04:32.390Z,90.00
2017-08-29T05:07:01.689Z,90.10
2017-08-29T05:09:31.035Z,90.00
2017-08-29T05:12:00.306Z,89.70
2017-08-29T05:14:29.585Z,89.60
2017-08-29T05:16:58.830Z,89.80
2017-08-29T05:19:28.403Z,89.60
2017-08-29T05:21:57.753Z,89.60
2017-08-29T05:24:27.001Z,89.30
2017-08-29T05:26:56.267Z,88.90
2017-08-29T05:29:25.629Z,88.50
2017-08-29T05:31:54.931Z,88.40
2017-08-29T05:34:24.189Z,88.10
2017-08-29T05:36:53.450Z,88.00
2017-08-29T05:39:22.730Z,87.40
2017-08-29T05:41:51.969Z,87.40
2017-08-29T05:44:21.271Z,87.40
2017-08-29T05:46:50.517Z,87.50
2017-08-29T05:49:19.774Z,86.90
2017-08-29T05:51:49.029Z,86.80
2017-08-29T05:54:18.322Z,86.90
2017-08-29T05:56:47.598Z,87.00
2017-08-29T05:59:16.848Z,86.60
2017-08-29T06:01:46.085Z,86.40
2017-08-29T06:04:15.553Z,87.30
2017-08-29T06:06:44.841Z,86.00
2017-08-29T06:09:14.207Z,86.00
2017-08-29T06:11:43.462Z,86.40
2017-08-29T06:14:12.769Z,83.80
2017-08-29T06:16:42.010Z,75.60
2017-08-29T06:19:11.268Z,67.60
2017-08-29T06:21:40.554Z,59.00
2017-08-29T06:24:09.791Z,54.00
2017-08-29T06:26:39.038Z,49.00
2017-08-29T06:29:08.478Z,45.30
2017-08-29T06:31:37.756Z,42.60
2017-08-29T06:34:06.996Z,39.70
2017-08-29T06:36:36.485Z,38.20
2017-08-29T06:39:05.714Z,36.50
2017-08-29T06:41:34.975Z,35.80
2017-08-29T06:44:04.215Z,33.90
2017-08-29T06:46:33.598Z,33.30
2017-08-29T06:49:02.849Z,32.30
2017-08-29T06:51:32.110Z,32.10
2017-08-29T06:54:01.991Z,32.70
2017-08-29T06:56:31.245Z,32.90
2017-08-29T06:59:00.548Z,31.90
2017-08-29T07:01:29.794Z,31.70
2017-08-29T07:03:59.151Z,32.70
2017-08-29T07:06:28.421Z,33.00
2017-08-29T07:08:57.898Z,32.50
2017-08-29T07:11:27.459Z,32.60
2017-08-29T07:13:56.783Z,32.30
2017-08-29T07:16:26.058Z,33.10
2017-08-29T07:18:55.318Z,32.60
2017-08-29T07:21:24.769Z,31.20
2017-08-29T07:23:54.129Z,31.30
2017-08-29T07:26:23.438Z,30.30
2017-08-29T07:28:52.790Z,29.60
2017-08-29T07:31:22.077Z,28.90
2017-08-29T07:33:51.538Z,28.50
2017-08-29T07:36:20.814Z,28.80
2017-08-29T07:38:50.142Z,28.50
2017-08-29T07:41:19.594Z,28.70
2017-08-29T07:43:48.879Z,26.30
2017-08-29T07:46:18.249Z,27.40
2017-08-29T07:48:47.520Z,27.70
2017-08-29T07:51:16.835Z,26.80
2017-08-29T07:53:46.074Z,27.20
2017-08-29T07:56:15.337Z,27.00
2017-08-29T07:58:44.570Z,27.40
2017-08-29T08:01:13.853Z,27.10
2017-08-29T08:03:43.105Z,27.10
2017-08-29T08:06:12.365Z,27.80
2017-08-29T08:08:41.633Z,27.50
2017-08-29T08:11:10.898Z,27.30
2017-08-29T08:13:40.199Z,27.40
2017-08-29T08:16:09.477Z,27.20
2017-08-29T08:18:38.718Z,27.10
2017-08-29T08:21:07.954Z,27.00
2017-08-29T08:23:37.481Z,27.00
2017-08-29T08:26:06.741Z,27.00
2017-08-29T08:28:36.006Z,26.90
2017-08-29T08:31:05.286Z,26.10
2017-08-29T08:33:34.532Z,26.20
2017-08-29T08:36:03.798Z,26.30
2017-08-29T08:38:33.042Z,26.20
2017-08-29T08:41:02.380Z,26.00
2017-08-29T08:43:31.743Z,25.90
2017-08-29T08:46:01.018Z,25.60
2017-08-29T08:48:30.282Z,25.80
2017-08-29T08:50:59.530Z,25.00
2017-08-29T08:53:28.793Z,25.00
2017-08-29T08:55:58.049Z,24.80
2017-08-29T08:58:27.323Z,24.40
2017-08-29T09:00:56.581Z,24.00
2017-08-29T09:03:25.837Z,24.20
2017-08-29T09:05:55.126Z,24.70
2017-08-29T09:08:24.372Z,24.80
2017-08-29T09:10:53.835Z,24.50
2017-08-29T09:13:23.080Z,24.70
2017-08-29T09:15:52.351Z,25.30
2017-08-29T09:18:21.596Z,25.00
2017-08-29T09:20:50.866Z,24.80
2017-08-29T09:23:20.145Z,24.40
2017-08-29T09:25:49.382Z,23.80
2017-08-29T09:28:18.642Z,24.00
2017-08-29T09:30:47.950Z,24.10
2017-08-29T09:33:17.208Z,23.70
2017-08-29T09:35:46.480Z,24.50
2017-08-29T09:38:15.845Z,24.70
2017-08-29T09:40:45.731Z,24.20
2017-08-29T09:43:15.035Z,23.90
2017-08-29T09:45:44.422Z,24.10
2017-08-29T09:48:13.682Z,23.50
2017-08-29T09:50:43.142Z,23.80
2017-08-29T09:53:12.391Z,22.90
2017-08-29T09:55:42.255Z,22.70
2017-08-29T09:58:11.510Z,23.30
2017-08-29T10:00:40.782Z,22.20
2017-08-29T10:03:10.617Z,22.00
2017-08-29T10:05:39.898Z,22.50
2017-08-29T10:08:09.153Z,22.30
2017-08-29T10:10:38.439Z,21.30
2017-08-29T10:13:07.702Z,21.80
2017-08-29T10:15:36.947Z,22.50
2017-08-29T10:18:06.278Z,22.10
2017-08-29T10:20:35.568Z,22.40
2017-08-29T10:23:04.811Z,23.00
2017-08-29T10:25:34.942Z,22.90
2017-08-29T10:28:04.290Z,21.90
2017-08-29T10:30:33.636Z,24.40
2017-08-29T10:33:02.907Z,22.90
2017-08-29T10:35:33.033Z,22.70
2017-08-29T10:38:02.333Z,22.80
2017-08-29T10:40:31.598Z,22.70
2017-08-29T10:43:01.151Z,23.50
2017-08-29T10:45:30.658Z,23.70
2017-08-29T10:47:59.972Z,24.20
2017-08-29T10:50:29.222Z,24.30
2017-08-29T10:52:58.470Z,23.60
2017-08-29T10:55:27.748Z,23.60
2017-08-29T10:57:57.023Z,24.60
2017-08-29T11:00:26.258Z,22.70
2017-08-29T11:02:55.574Z,23.70
2017-08-29T11:05:25.057Z,23.40
2017-08-29T11:07:54.299Z,23.70
2017-08-29T11:10:23.560Z,24.40
2017-08-29T11:12:52.820Z,24.00
2017-08-29T11:15:22.109Z,23.90
2017-08-29T11:17:51.330Z,24.30
2017-08-29T11:20:20.597Z,24.90
2017-08-29T11:22:49.861Z,24.40
2017-08-29T11:25:19.134Z,24.10
2017-08-29T11:27:48.407Z,24.70
2017-08-29T11:30:17.693Z,25.00
2017-08-29T11:32:46.946Z,24.80
2017-08-29T11:35:16.213Z,26.60
2017-08-29T11:37:45.534Z,25.50
2017-08-29T11:40:14.809Z,25.70
2017-08-29T11:42:44.062Z,26.50
2017-08-29T11:45:13.375Z,27.60
2017-08-29T11:47:42.655Z,28.50
2017-08-29T11:50:12.669Z,32.70
2017-08-29T11:52:41.924Z,32.80
2017-08-29T11:55:11.618Z,34.30
2017-08-29T11:57:40.838Z,34.80
2017-08-29T12:00:10.117Z,37.50
2017-08-29T12:02:39.393Z,37.10
2017-08-29T12:05:08.632Z,37.40
2017-08-29T12:07:37.885Z,37.80
2017-08-29T12:10:07.168Z,37.80
2017-08-29T12:12:36.380Z,38.90
2017-08-29T12:15:05.634Z,38.90
2017-08-29T12:17:34.881Z,39.10
2017-08-29T12:20:04.153Z,39.70
2017-08-29T12:22:33.401Z,38.40
2017-08-29T12:25:02.683Z,37.60
2017-08-29T12:27:31.926Z,37.80
2017-08-29T12:30:01.311Z,35.90
2017-08-29T12:32:30.568Z,35.60
2017-08-29T12:34:59.824Z,37.00
2017-08-29T12:37:29.228Z,37.70
2017-08-29T12:39:58.478Z,37.50
2017-08-29T12:42:27.775Z,35.70
2017-08-29T12:44:57.004Z,36.60
2017-08-29T12:47:26.246Z,36.90
2017-08-29T12:49:55.511Z,37.30
2017-08-29T12:52:24.838Z,35.40
2017-08-29T12:54:54.085Z,35.60
2017-08-29T12:57:23.419Z,35.80
2017-08-29T12:59:52.718Z,35.80
2017-08-29T13:02:22.046Z,36.20
2017-08-29T13:04:51.310Z,38.20
2017-08-29T13:07:20.558Z,36.70
2017-08-29T13:09:50.243Z,37.20
2017-08-29T13:12:19.462Z,37.10
2017-08-29T13:14:48.748Z,35.40
2017-08-29T13:17:18.014Z,36.50
2017-08-29T13:19:47.298Z,39.00
2017-08-29T13:22:16.565Z,38.10
2017-08-29T13:24:45.807Z,38.30
2017-08-29T13:27:15.063Z,37.50
2017-08-29T13:29:44.309Z,38.00
2017-08-29T13:32:13.670Z,35.80
2017-08-29T13:34:42.926Z,36.10
2017-08-29T13:37:12.337Z,36.90
2017-08-29T13:39:41.955Z,37.50
2017-08-29T13:42:11.197Z,37.50
2017-08-29T13:44:40.478Z,38.00
2017-08-29T13:47:09.806Z,38.40
2017-08-29T13:49:39.677Z,38.40
2017-08-29T13:52:08.919Z,38.60
2017-08-29T13:54:38.180Z,38.80
2017-08-29T13:57:07.424Z,37.90
2017-08-29T13:59:36.687Z,38.30
2017-08-29T14:02:05.941Z,38.50
2017-08-29T14:04:35.379Z,38.80
2017-08-29T14:07:04.681Z,40.20
2017-08-29T14:09:33.917Z,38.40
2017-08-29T14:12:03.155Z,38.40
2017-08-29T14:14:32.425Z,38.50
2017-08-29T14:17:01.667Z,38.80
2017-08-29T14:19:30.933Z,39.30
2017-08-29T14:22:00.479Z,39.30
2017-08-29T14:24:29.721Z,39.60
2017-08-29T14:26:58.997Z,39.50
2017-08-29T14:29:28.243Z,39.60
2017-08-29T14:31:57.498Z,37.70
2017-08-29T14:34:26.830Z,37.90
2017-08-29T14:36:56.080Z,38.40
2017-08-29T14:39:25.408Z,39.60
2017-08-29T14:41:54.661Z,39.50
2017-08-29T14:44:24.668Z,38.20
2017-08-29T14:47:12.290Z,37.80
2017-08-29T14:49:41.581Z,39.00
2017-08-29T14:52:10.833Z,41.20
2017-08-29T14:54:40.069Z,41.70
2017-08-29T14:57:09.350Z,36.80
2017-08-29T14:59:38.591Z,37.00
2017-08-29T15:02:07.897Z,38.00
2017-08-29T15:04:37.135Z,40.00
2017-08-29T15:07:06.596Z,37.90
2017-08-29T15:09:35.829Z,38.50
2017-08-29T15:12:05.104Z,37.70
2017-08-29T15:14:34.512Z,38.90
2017-08-29T15:17:04.103Z,38.50
2017-08-29T15:19:33.366Z,38.40
2017-08-29T15:22:02.805Z,38.70
2017-08-29T15:24:32.078Z,37.60
2017-08-29T15:27:01.378Z,38.20
2017-08-29T15:29:31.015Z,39.40
2017-08-29T15:32:03.196Z,38.80
2017-08-29T15:34:34.473Z,40.10
2017-08-29T15:37:04.769Z,39.30
2017-08-29T15:39:34.109Z,39.20
2017-08-29T15:42:04.331Z,39.60
2017-08-29T15:44:34.291Z,40.70
2017-08-29T15:47:03.538Z,39.60
2017-08-29T15:49:32.935Z,38.50
2017-08-29T15:52:05.900Z,41.50
2017-08-29T15:54:36.208Z,43.10
2017-08-29T15:57:05.490Z,47.00
2017-08-29T15:59:34.734Z,47.40
2017-08-29T16:02:04.115Z,47.30
2017-08-29T16:04:34.088Z,48.60
2017-08-29T16:07:03.633Z,47.70
2017-08-29T16:09:33.011Z,48.70
2017-08-29T16:12:02.439Z,49.60
2017-08-29T16:14:31.702Z,50.70
2017-08-29T16:17:01.452Z,50.20
2017-08-29T16:19:31.678Z,51.80
2017-08-29T16:22:01.548Z,52.30
2017-08-29T16:24:31.878Z,52.70
2017-08-29T16:27:01.157Z,53.60
2017-08-29T16:29:30.509Z,54.20
2017-08-29T16:31:59.864Z,54.40
2017-08-29T16:34:29.126Z,55.30
2017-08-29T16:36:59.541Z,55.90
2017-08-29T16:39:28.806Z,56.70
2017-08-29T16:41:58.109Z,56.90
2017-08-29T16:44:27.363Z,57.60
2017-08-29T16:46:56.846Z,58.30
2017-08-29T16:49:26.095Z,59.50
2017-08-29T16:51:55.341Z,60.60
2017-08-29T16:54:24.613Z,61.80
2017-08-29T16:56:54.072Z,63.10
2017-08-29T16:59:23.348Z,64.30
2017-08-29T17:01:52.594Z,64.80
2017-08-29T17:04:21.883Z,64.90
2017-08-29T17:06:51.241Z,66.40
2017-08-29T17:09:20.563Z,67.60
2017-08-29T17:11:49.951Z,67.80
2017-08-29T17:14:19.224Z,68.10
2017-08-29T17:16:48.693Z,68.40
2017-08-29T17:19:18.001Z,68.40
2017-08-29T17:21:47.376Z,68.70
2017-08-29T17:24:16.607Z,69.20
2017-08-29T17:26:45.915Z,68.40
2017-08-29T17:29:15.198Z,67.90
2017-08-29T17:31:44.462Z,68.20
2017-08-29T17:34:13.709Z,68.70
2017-08-29T17:36:43.196Z,69.50
2017-08-29T17:39:12.618Z,69.00
2017-08-29T17:41:41.914Z,68.20
2017-08-29T17:44:11.240Z,68.30
2017-08-29T17:46:41.094Z,67.90
2017-08-29T17:49:10.415Z,68.80
2017-08-29T17:51:39.892Z,68.50
2017-08-29T17:54:09.203Z,68.50
2017-08-29T17:56:38.471Z,68.80
2017-08-29T17:59:07.707Z,69.50
2017-08-29T18:01:37.076Z,70.20
2017-08-29T18:04:06.358Z,71.00
2017-08-29T18:06:35.705Z,71.20
2017-08-29T18:09:04.972Z,71.60
2017-08-29T18:11:34.948Z,72.90
2017-08-29T18:14:04.219Z,72.40
2017-08-29T18:16:33.490Z,72.90
2017-08-29T18:19:02.772Z,73.00
2017-08-29T18:21:32.158Z,73.30
2017-08-29T18:24:01.461Z,73.50
2017-08-29T18:26:30.701Z,73.40
2017-08-29T18:28:59.967Z,73.90
2017-08-29T18:31:29.274Z,74.00
2017-08-29T18:33:58.599Z,74.40
2017-08-29T18:36:27.951Z,74.60
2017-08-29T18:38:57.207Z,74.80
2017-08-29T18:41:26.534Z,74.90
2017-08-29T18:43:55.824Z,74.80
2017-08-29T18:49:29.416Z,75.50
2017-08-29T18:51:58.676Z,75.50
2017-08-29T18:54:27.956Z,75.70
2017-08-29T18:56:57.297Z,75.50
2017-08-29T18:59:26.618Z,75.50
2017-08-29T19:01:55.916Z,75.70
2017-08-29T19:04:25.527Z,75.40
2017-08-29T19:06:54.808Z,75.60
2017-08-29T19:09:24.124Z,75.80
2017-08-29T19:11:53.417Z,75.60
2017-08-29T19:14:22.767Z,76.10
2017-08-29T19:16:52.118Z,75.80
2017-08-29T19:19:21.447Z,75.90
2017-08-29T19:21:50.711Z,75.90
2017-08-29T19:24:20.041Z,76.00
2017-08-29T19:26:49.392Z,76.30
2017-08-29T19:29:18.770Z,76.30
2017-08-29T19:31:48.051Z,76.50
2017-08-29T19:34:17.319Z,76.30
2017-08-29T19:36:46.611Z,76.20
2017-08-29T19:39:15.884Z,76.90
2017-08-29T19:41:45.252Z,76.20
2017-08-29T19:44:14.607Z,76.00
2017-08-29T19:46:43.890Z,76.40
2017-08-29T19:49:13.207Z,76.60
2017-08-29T19:51:42.478Z,76.60
2017-08-29T19:54:11.775Z,76.50
2017-08-29T19:56:41.034Z,76.50
2017-08-29T19:59:10.358Z,76.80
2017-08-29T20:01:39.716Z,77.20
2017-08-29T20:04:08.995Z,76.70
2017-08-29T20:06:38.279Z,77.30
2017-08-29T20:09:07.695Z,77.20
2017-08-29T20:11:37.054Z,77.60
2017-08-29T20:14:06.286Z,77.80
2017-08-29T20:16:35.558Z,77.80
2017-08-29T20:19:04.822Z,78.00
2017-08-29T20:21:34.323Z,78.30
2017-08-29T20:24:03.583Z,78.30
2017-08-29T20:26:32.955Z,78.30
2017-08-29T20:29:02.297Z,78.40
2017-08-29T20:31:31.674Z,78.50
2017-08-29T20:34:01.031Z,78.70
2017-08-29T20:36:30.409Z,79.80
2017-08-29T20:38:59.622Z,79.20
2017-08-29T20:41:29.086Z,79.40
2017-08-29T20:43:58.653Z,79.50
2017-08-29T20:46:27.936Z,79.70
2017-08-29T20:48:57.216Z,79.70
2017-08-29T20:51:26.502Z,79.70
2017-08-29T20:53:55.790Z,79.90
2017-08-29T20:56:25.062Z,80.20
2017-08-29T20:58:54.318Z,80.30
2017-08-29T21:01:23.578Z,80.40
2017-08-29T21:03:52.847Z,80.30
2017-08-29T21:06:22.132Z,80.30
2017-08-29T21:08:51.631Z,80.70
2017-08-29T21:11:24.914Z,80.70
2017-08-29T21:13:54.338Z,81.00
2017-08-29T21:16:23.937Z,81.20
2017-08-29T21:18:56.238Z,81.60
2017-08-29T21:21:25.499Z,81.60
2017-08-29T21:23:54.771Z,81.80
2017-08-29T21:26:24.051Z,82.10
2017-08-29T21:28:53.309Z,82.40
2017-08-29T21:31:22.735Z,82.50
2017-08-29T21:33:52.044Z,82.40
2017-08-29T21:36:21.435Z,82.50
2017-08-29T21:38:50.737Z,82.90
2017-08-29T21:41:24.850Z,83.20
2017-08-29T21:43:54.122Z,83.10
2017-08-29T21:46:23.375Z,83.60
2017-08-29T21:48:52.640Z,83.70
2017-08-29T21:51:21.949Z,84.30
2017-08-29T21:53:51.499Z,83.70
2017-08-29T21:56:20.779Z,83.90
2017-08-29T21:58:50.032Z,84.00
2017-08-29T22:01:19.347Z,83.70
2017-08-29T22:03:48.725Z,83.80
2017-08-29T22:06:18.091Z,83.80
2017-08-29T22:08:48.176Z,83.70
2017-08-29T22:11:17.451Z,83.90
2017-08-29T22:13:46.726Z,83.90
2017-08-29T22:16:16.024Z,84.10
2017-08-29T22:18:45.315Z,84.10
2017-08-29T22:21:15.164Z,84.10
2017-08-29T22:23:44.587Z,84.50
2017-08-29T22:26:13.866Z,84.70
2017-08-29T22:28:43.151Z,84.80
2017-08-29T22:31:12.422Z,85.40
2017-08-29T22:33:41.679Z,84.90
2017-08-29T22:36:11.827Z,84.60
2017-08-29T22:38:41.141Z,84.70
2017-08-29T22:41:10.433Z,84.90
2017-08-29T22:43:39.733Z,85.10
2017-08-29T22:46:08.986Z,85.00
2017-08-29T22:48:38.324Z,85.30
2017-08-29T22:51:07.541Z,86.20
2017-08-29T22:53:36.896Z,85.60
2017-08-29T22:56:06.338Z,85.50
2017-08-29T22:58:35.581Z,85.90
2017-08-29T23:01:05.069Z,85.90
2017-08-29T23:03:34.843Z,85.90
2017-08-29T23:06:04.200Z,86.10
2017-08-29T23:11:08.087Z,86.00
2017-08-29T23:13:37.396Z,86.10
2017-08-29T23:16:06.650Z,86.50
2017-08-29T23:18:35.911Z,86.40
2017-08-29T23:21:05.166Z,86.20
2017-08-29T23:23:34.465Z,86.60
2017-08-29T23:26:03.736Z,86.70
2017-08-29T23:28:32.998Z,87.00
2017-08-29T23:31:02.462Z,87.00
2017-08-29T23:33:31.739Z,87.50
2017-08-29T23:36:00.991Z,86.90
2017-08-29T23:38:30.284Z,86.70
2017-08-29T23:41:00.266Z,87.40
2017-08-29T23:43:30.237Z,87.20
2017-08-29T23:45:59.530Z,87.40
2017-08-29T23:48:28.778Z,87.40
2017-08-29T23:50:58.162Z,87.60
2017-08-29T23:53:27.457Z,87.40
2017-08-29T23:55:56.720Z,87.60
2017-08-29T23:58:25.985Z,87.40
